Time;durP1;ratioP1;P1;durP2;ratioP2;P2;SDS_P1;SDS_P2;PMS_P1;PMS_P2;Temp;Humidity;BMP_temperature;BMP_pressure;BME280_temperature;BME280_humidity;BME280_pressure;Samples;Min_cycle;Max_cycle;Signal;HPM_P1;HPM_P2
2021/10/24 00:01:06;;;;;;;9.90;6.50;;;;;;;3.84;61.51;98401.14;117273;1176;70557;-65
2021/10/24 00:03:36;;;;;;;8.50;5.60;;;;;;;3.78;62.61;98400.80;117337;1174;67715;-64
2021/10/24 00:06:06;;;;;;;12.20;6.50;;;;;;;3.71;62.80;98404.48;117336;1174;69039;-67
2021/10/24 00:08:36;;;;;;;13.30;7.30;;;;;;;3.60;63.54;98406.16;117305;1174;58725;-63
2021/10/24 00:11:06;;;;;;;11.20;6.20;;;;;;;3.44;64.19;98403.52;117254;1174;58784;-64
2021/10/24 00:13:36;;;;;;;13.30;6.00;;;;;;;3.42;64.23;98397.89;117313;1166;69697;-64
2021/10/24 00:16:06;;;;;;;12.20;6.70;;;;;;;3.29;65.08;98396.36;117280;1175;68439;-64
2021/10/24 00:18:35;;;;;;;9.80;6.90;;;;;;;3.15;65.06;98399.48;117316;1177;69331;-64
2021/10/24 00:21:05;;;;;;;8.70;5.80;;;;;;;3.07;64.93;98400.23;117245;1174;58777;-66
2021/10/24 00:23:35;;;;;;;7.80;5.50;;;;;;;2.95;65.95;98398.67;117340;1174;58725;-66
2021/10/24 00:26:06;;;;;;;6.20;4.70;;;;;;;2.79;66.50;98394.27;117316;1174;69745;-64
2021/10/24 00:28:36;;;;;;;6.70;4.80;;;;;;;2.66;66.80;98404.41;117316;1175;67432;-64
2021/10/24 00:31:06;;;;;;;7.90;4.20;;;;;;;2.55;66.82;98401.41;117310;1174;68433;-63
2021/10/24 00:33:35;;;;;;;5.50;4.00;;;;;;;2.46;67.17;98402.99;117265;1175;58764;-63
2021/10/24 00:36:21;;;;;;;4.80;4.10;;;;;;;2.39;67.95;98401.11;117313;1174;58760;-64
2021/10/24 00:38:51;;;;;;;5.10;3.10;;;;;;;2.36;67.53;98405.84;117314;1175;70933;-66
2021/10/24 00:41:21;;;;;;;5.00;3.20;;;;;;;2.32;67.24;98402.48;117340;1174;68360;-64
2021/10/24 00:43:51;;;;;;;;;;;;;;;2.27;67.65;98407.59;117247;1174;69665;-64
2021/10/24 00:46:21;;;;;;;4.20;2.80;;;;;;;2.23;67.48;98424.89;117317;1174;58706;-64
2021/10/24 00:49:00;;;;;;;6.30;3.50;;;;;;;2.19;66.97;98423.27;117242;1174;59038;-64
2021/10/24 00:51:30;;;;;;;3.30;2.60;;;;;;;2.13;68.32;98419.46;117260;1174;69496;-66
2021/10/24 00:54:00;;;;;;;4.70;3.20;;;;;;;2.09;68.48;98417.83;117332;1174;68380;-66
2021/10/24 00:56:31;;;;;;;6.40;5.00;;;;;;;2.06;68.05;98422.87;117240;1174;69001;-66
2021/10/24 00:59:00;;;;;;;;;;;;;;;2.05;66.94;98428.06;117199;1174;58671;-66
2021/10/24 01:01:29;;;;;;;3.80;2.30;;;;;;;1.98;67.12;98430.79;117148;1175;58700;-64
2021/10/24 01:04:00;;;;;;;8.00;5.20;;;;;;;1.93;67.76;98425.23;117288;1174;69978;-64
2021/10/24 01:06:40;;;;;;;6.80;5.20;;;;;;;1.84;70.26;98428.34;117321;1176;68380;-64
2021/10/24 01:09:15;;;;;;;9.00;4.60;;;;;;;1.78;70.15;98437.05;117301;1176;69273;-63
2021/10/24 01:11:45;;;;;;;6.10;4.60;;;;;;;1.73;69.48;98438.04;117265;1174;58730;-63
2021/10/24 01:14:15;;;;;;;6.90;4.90;;;;;;;1.67;69.21;98433.35;117342;1174;58751;-63
2021/10/24 01:16:46;;;;;;;5.70;2.40;;;;;;;1.61;69.91;98437.94;117352;1177;69606;-64
2021/10/24 01:19:17;;;;;;;6.60;5.10;;;;;;;1.57;69.23;98443.19;117363;1174;68347;-64
2021/10/24 01:21:47;;;;;;;8.10;4.80;;;;;;;1.49;70.99;98439.73;117288;1174;69243;-64
2021/10/24 01:24:18;;;;;;;6.50;4.20;;;;;;;1.43;70.87;98440.17;117283;1174;58716;-63
2021/10/24 01:26:49;;;;;;;4.10;2.50;;;;;;;1.37;71.57;98445.13;117323;1174;58739;-64
2021/10/24 01:29:19;;;;;;;4.40;3.10;;;;;;;1.37;68.88;98445.98;117076;1174;69723;-65
2021/10/24 01:31:49;;;;;;;5.60;3.30;;;;;;;1.36;69.33;98442.74;117311;1174;67422;-64
2021/10/24 01:34:21;;;;;;;8.00;4.90;;;;;;;1.33;72.19;98445.88;117329;1176;68437;-64
2021/10/24 01:36:51;;;;;;;4.10;3.00;;;;;;;1.25;72.63;98445.85;117316;1174;59120;-64
2021/10/24 01:39:21;;;;;;;6.60;4.60;;;;;;;1.23;69.96;98445.89;117299;1174;58786;-65
2021/10/24 01:41:51;;;;;;;8.60;4.60;;;;;;;1.19;70.29;98447.34;117183;1175;70559;-64
2021/10/24 01:44:22;;;;;;;6.00;4.30;;;;;;;1.16;70.10;98451.36;117332;1174;67636;-64
2021/10/24 01:46:51;;;;;;;;;;;;;;;1.11;70.25;98453.34;117248;1176;69267;-63
2021/10/24 01:49:22;;;;;;;6.10;4.30;;;;;;;1.07;70.12;98455.98;117265;1174;58677;-64
2021/10/24 01:51:52;;;;;;;6.10;4.20;;;;;;;1.01;71.62;98462.44;117310;1174;58686;-63
2021/10/24 01:54:22;;;;;;;6.50;5.30;;;;;;;0.96;72.28;98466.48;117336;1174;70348;-64
2021/10/24 01:56:53;;;;;;;5.80;3.90;;;;;;;0.89;73.59;98474.16;117337;1174;68359;-64
2021/10/24 01:59:23;;;;;;;7.00;4.70;;;;;;;0.83;73.01;98467.73;117299;1175;69260;-64
2021/10/24 02:02:17;;;;;;;10.40;7.30;;;;;;;0.77;73.67;98463.88;117236;1175;58697;-63
2021/10/24 02:05:08;;;;;;;5.70;3.70;;;;;;;0.73;72.43;98468.06;117226;1175;58764;-63
2021/10/24 02:07:40;;;;;;;12.70;6.50;;;;;;;0.71;70.29;98468.27;116990;1177;70510;-64
2021/10/24 02:10:17;;;;;;;5.90;3.80;;;;;;;0.66;74.21;98477.29;117211;1176;69084;-64
2021/10/24 02:12:48;;;;;;;4.90;3.60;;;;;;;0.62;70.95;98478.71;117310;1174;68227;-63
2021/10/24 02:15:23;;;;;;;6.70;4.80;;;;;;;0.60;71.01;98480.13;117320;1174;58707;-63
2021/10/24 02:17:53;;;;;;;8.50;4.80;;;;;;;0.55;71.35;98482.95;117294;1175;58739;-64
2021/10/24 02:20:29;;;;;;;8.30;5.00;;;;;;;0.49;73.99;98489.04;117403;1174;71209;-64
2021/10/24 02:23:03;;;;;;;5.90;3.40;;;;;;;0.45;72.09;98490.83;117255;1177;68170;-63
2021/10/24 02:25:35;;;;;;;10.70;6.00;;;;;;;0.42;70.94;98498.23;117343;1176;69354;-64
2021/10/24 02:28:05;;;;;;;12.90;6.90;;;;;;;0.35;75.34;98498.16;117272;1175;58890;-64
2021/10/24 02:30:36;;;;;;;10.10;6.30;;;;;;;0.26;77.01;98498.13;117391;1174;58719;-64
2021/10/24 02:33:27;;;;;;;10.50;6.50;;;;;;;0.20;76.73;98500.61;117194;1175;69852;-64
2021/10/24 02:36:15;;;;;;;8.20;5.70;;;;;;;0.16;76.37;98505.45;117354;1174;68316;-65
2021/10/24 02:38:52;;;;;;;7.30;4.30;;;;;;;0.14;74.80;98509.61;117261;1174;69211;-66
2021/10/24 02:41:22;;;;;;;7.90;6.40;;;;;;;0.10;75.39;98507.77;117250;1177;58730;-64
2021/10/24 02:43:53;;;;;;;9.70;5.60;;;;;;;0.03;76.84;98511.48;117314;1175;58709;-64
2021/10/24 02:46:24;;;;;;;9.30;5.60;;;;;;;-0.02;76.48;98520.11;117316;1174;70574;-64
2021/10/24 02:48:54;;;;;;;9.60;4.90;;;;;;;-0.08;76.79;98529.94;117309;1177;68616;-64
2021/10/24 02:51:25;;;;;;;7.10;4.00;;;;;;;-0.12;76.29;98529.66;117253;1174;69266;-63
2021/10/24 02:53:56;;;;;;;9.00;4.80;;;;;;;-0.15;76.42;98532.61;117262;1174;58700;-64
2021/10/24 02:56:26;;;;;;;9.60;5.70;;;;;;;-0.18;77.08;98530.40;116951;1177;58789;-64
2021/10/24 02:58:56;;;;;;;8.30;4.20;;;;;;;-0.21;77.87;98533.20;117271;1167;70526;-64
2021/10/24 03:01:27;;;;;;;8.50;4.80;;;;;;;-0.24;77.24;98535.97;117295;1175;67234;-62
2021/10/24 03:03:57;;;;;;;6.60;4.70;;;;;;;-0.27;77.04;98534.98;117225;1175;68268;-64
2021/10/24 03:06:28;;;;;;;5.30;3.50;;;;;;;-0.30;75.39;98538.42;117143;1177;58745;-64
2021/10/24 03:08:59;;;;;;;5.70;3.80;;;;;;;-0.31;73.56;98537.42;117272;1174;58728;-63
2021/10/24 03:11:30;;;;;;;7.20;4.70;;;;;;;-0.31;73.99;98542.39;117341;1174;70545;-64
2021/10/24 03:14:01;;;;;;;4.70;3.30;;;;;;;-0.35;74.28;98543.80;117259;1175;68172;-65
2021/10/24 03:16:32;;;;;;;8.20;6.30;;;;;;;-0.38;75.41;98545.55;117116;1177;69085;-64
2021/10/24 03:19:03;;;;;;;6.20;4.10;;;;;;;-0.41;75.85;98543.70;117267;1174;58713;-64
2021/10/24 03:21:32;;;;;;;9.00;6.20;;;;;;;-0.44;75.43;98546.48;117264;1174;58728;-63
2021/10/24 03:24:05;;;;;;;5.70;4.50;;;;;;;-0.49;77.14;98549.61;117354;1174;70582;-63
2021/10/24 03:26:34;;;;;;;;;;;;;;;-0.54;76.05;98551.88;117359;1174;68040;-64
2021/10/24 03:29:04;;;;;;;9.30;4.90;;;;;;;-0.57;75.78;98554.98;117232;1178;67264;-64
2021/10/24 03:31:35;;;;;;;6.10;5.10;;;;;;;-0.62;78.01;98554.54;117025;1175;58748;-64
2021/10/24 03:34:05;;;;;;;9.30;5.10;;;;;;;-0.67;76.60;98556.11;117335;1175;58718;-64
2021/10/24 03:36:35;;;;;;;4.30;3.30;;;;;;;-0.71;77.61;98548.63;117310;1175;69924;-63
2021/10/24 03:39:05;;;;;;;4.60;3.80;;;;;;;-0.73;76.03;98551.90;117359;1177;67603;-64
2021/10/24 03:41:35;;;;;;;9.50;7.70;;;;;;;-0.76;77.13;98550.73;117277;1176;69222;-64
2021/10/24 03:44:05;;;;;;;11.70;7.90;;;;;;;-0.79;77.87;98554.02;117255;1174;58745;-64
2021/10/24 03:46:35;;;;;;;11.40;8.10;;;;;;;-0.85;79.71;98558.00;117344;1174;58649;-64
2021/10/24 03:49:09;;;;;;;10.20;7.50;;;;;;;-0.91;78.57;98559.61;117321;1176;70885;-64
2021/10/24 03:51:40;;;;;;;6.90;5.60;;;;;;;-0.96;77.71;98555.36;117360;1175;68251;-64
2021/10/24 03:54:12;;;;;;;8.40;5.80;;;;;;;-0.99;77.11;98556.58;117309;1175;69240;-65
2021/10/24 03:56:42;;;;;;;10.60;7.40;;;;;;;-1.04;77.98;98554.73;117224;1174;58741;-65
2021/10/24 03:59:12;;;;;;;8.90;6.20;;;;;;;-1.08;78.97;98558.36;117287;1177;58758;-65
2021/10/24 04:01:42;;;;;;;11.10;6.30;;;;;;;-1.11;78.70;98559.93;117162;1175;69771;-63
2021/10/24 04:04:12;;;;;;;8.80;6.10;;;;;;;-1.13;78.90;98560.98;117288;1174;67480;-64
2021/10/24 04:06:42;;;;;;;7.40;5.00;;;;;;;-1.17;78.69;98557.23;117338;1175;68792;-65
2021/10/24 04:09:12;;;;;;;6.30;3.70;;;;;;;-1.18;76.60;98560.16;117254;1175;58711;-65
2021/10/24 04:11:42;;;;;;;6.20;5.30;;;;;;;-1.19;75.93;98562.91;117260;1174;58735;-64
2021/10/24 04:14:11;;;;;;;5.20;3.60;;;;;;;-1.21;75.63;98563.59;117222;1176;71133;-63
2021/10/24 04:16:41;;;;;;;8.30;5.50;;;;;;;-1.21;75.03;98565.48;117224;1176;68433;-64
2021/10/24 04:19:31;;;;;;;10.40;7.10;;;;;;;-1.25;76.28;98571.15;117177;1174;69501;-62
2021/10/24 04:22:01;;;;;;;;;;;;;;;-1.29;76.10;98575.29;117363;1175;58745;-65
2021/10/24 04:24:31;;;;;;;8.70;5.90;;;;;;;-1.34;78.41;98577.19;117288;1176;58688;-64
2021/10/24 04:27:01;;;;;;;6.70;5.30;;;;;;;-1.38;78.51;98579.96;117240;1174;70526;-64
2021/10/24 04:29:31;;;;;;;6.10;4.10;;;;;;;-1.41;76.85;98579.98;117335;1176;69547;-63
2021/10/24 04:32:01;;;;;;;7.50;5.50;;;;;;;-1.44;77.54;98586.33;117311;1174;69307;-64
2021/10/24 04:34:30;;;;;;;6.90;4.40;;;;;;;-1.46;77.19;98591.48;117293;1174;58708;-63
2021/10/24 04:37:00;;;;;;;6.80;5.10;;;;;;;-1.48;77.23;98596.27;117331;1174;58719;-63
2021/10/24 04:39:30;;;;;;;4.60;3.50;;;;;;;-1.50;76.17;98599.70;117350;1171;70354;-63
2021/10/24 04:42:00;;;;;;;6.70;5.20;;;;;;;-1.51;74.47;98598.19;117160;1174;67726;-64
2021/10/24 04:44:30;;;;;;;9.50;6.40;;;;;;;-1.54;75.45;98599.04;117227;1177;69237;-63
2021/10/24 04:47:00;;;;;;;5.90;4.00;;;;;;;-1.56;77.83;98603.17;117322;1174;58671;-64
2021/10/24 04:49:30;;;;;;;10.20;6.90;;;;;;;-1.59;77.75;98603.52;117297;1174;58733;-64
2021/10/24 04:52:00;;;;;;;7.30;5.70;;;;;;;-1.61;78.00;98603.37;117135;1175;69761;-64
2021/10/24 04:54:30;;;;;;;10.60;6.80;;;;;;;-1.63;77.55;98606.77;117104;1176;68503;-65
2021/10/24 04:56:59;;;;;;;9.80;6.50;;;;;;;-1.65;77.56;98608.51;117203;1177;68376;-63
2021/10/24 04:59:30;;;;;;;8.50;6.60;;;;;;;-1.65;78.30;98614.15;117283;1175;58787;-65
2021/10/24 05:02:01;;;;;;;7.00;5.30;;;;;;;-1.67;77.85;98611.92;117204;1177;58719;-63
2021/10/24 05:04:30;;;;;;;7.10;5.70;;;;;;;-1.68;77.05;98611.92;117259;1175;70604;-63
2021/10/24 05:06:59;;;;;;;10.80;8.00;;;;;;;-1.68;77.39;98617.57;117247;1174;67116;-65
2021/10/24 05:09:29;;;;;;;6.90;5.40;;;;;;;-1.66;77.33;98622.70;117309;1174;69167;-64
2021/10/24 05:11:58;;;;;;;11.50;7.80;;;;;;;-1.64;77.59;98628.85;117272;1174;58796;-63
2021/10/24 05:14:27;;;;;;;14.00;9.20;;;;;;;-1.62;79.18;98634.64;117278;1174;58716;-64
2021/10/24 05:16:57;;;;;;;9.90;6.20;;;;;;;-1.60;77.68;98636.86;117215;1174;69883;-65
2021/10/24 05:19:26;;;;;;;14.30;10.20;;;;;;;-1.56;77.73;98644.54;117260;1174;67619;-64
2021/10/24 05:21:57;;;;;;;17.30;10.00;;;;;;;-1.54;78.13;98649.30;117254;1171;69359;-64
2021/10/24 05:24:28;;;;;;;17.50;11.60;;;;;;;-1.50;77.14;98654.58;117287;1174;58697;-65
2021/10/24 05:27:00;;;;;;;9.00;6.10;;;;;;;-1.49;78.87;98656.46;116841;1177;58655;-64
2021/10/24 05:29:30;;;;;;;13.10;9.10;;;;;;;-1.44;77.20;98662.42;117201;1175;69804;-65
2021/10/24 05:31:59;;;;;;;9.60;6.30;;;;;;;-1.37;77.42;98665.98;117281;1174;67583;-64
2021/10/24 05:34:29;;;;;;;11.90;7.60;;;;;;;-1.27;79.89;98669.34;117179;1176;68302;-64
2021/10/24 05:37:06;;;;;;;12.10;6.40;;;;;;;-1.17;79.35;98673.39;117280;1175;58668;-65
2021/10/24 05:39:36;;;;;;;22.30;14.60;;;;;;;-1.05;76.79;98673.00;117273;1174;58687;-63
2021/10/24 05:42:16;;;;;;;12.30;9.30;;;;;;;-0.96;76.94;98674.30;117124;1177;69727;-64
2021/10/24 05:44:49;;;;;;;13.80;8.30;;;;;;;-0.87;76.85;98680.04;116807;1177;68478;-64
2021/10/24 05:47:18;;;;;;;16.80;11.60;;;;;;;-0.79;77.60;98686.00;117156;1175;68199;-66
2021/10/24 05:49:49;;;;;;;10.20;7.90;;;;;;;-0.70;77.71;98691.05;117253;1174;58774;-64
2021/10/24 05:52:23;;;;;;;12.20;8.70;;;;;;;-0.60;76.56;98694.40;116913;1177;58684;-65
2021/10/24 05:54:52;;;;;;;13.40;9.10;;;;;;;-0.51;77.32;98698.11;117145;1176;71610;-64
2021/10/24 05:57:23;;;;;;;10.60;7.10;;;;;;;-0.43;77.90;98702.49;117230;1175;68777;-65
2021/10/24 06:00:13;;;;;;;12.70;9.50;;;;;;;-0.31;76.88;98707.20;116940;1177;69868;-65
2021/10/24 06:03:14;;;;;;;19.50;14.30;;;;;;;-0.17;77.41;98717.17;116976;1177;58723;-65
2021/10/24 06:06:22;;;;;;;24.10;16.90;;;;;;;-0.03;76.51;98723.05;116719;1177;58694;-64
2021/10/24 06:08:53;;;;;;;15.10;10.10;;;;;;;0.09;77.68;98727.72;116820;1178;70989;-62
2021/10/24 06:11:32;;;;;;;16.30;11.00;;;;;;;0.31;75.78;98726.98;117077;1175;67817;-64
2021/10/24 06:14:02;;;;;;;21.00;15.40;;;;;;;0.79;75.64;98730.72;117307;1176;68894;-63
2021/10/24 06:16:31;;;;;;;12.60;9.50;;;;;;;1.48;75.19;98736.78;117274;1171;59253;-65
2021/10/24 06:19:00;;;;;;;23.00;18.80;;;;;;;2.28;73.37;98740.08;117263;1175;58732;-64
2021/10/24 06:21:29;;;;;;;19.80;16.20;;;;;;;3.11;71.08;98741.88;117293;1174;71016;-66
2021/10/24 06:24:00;;;;;;;16.80;14.00;;;;;;;3.82;67.19;98741.95;117141;1176;68391;-65
2021/10/24 06:26:29;;;;;;;25.80;18.70;;;;;;;4.38;65.60;98741.55;117285;1177;69786;-64
2021/10/24 06:28:59;;;;;;;26.80;21.40;;;;;;;4.83;63.21;98742.74;117277;1175;58714;-66
2021/10/24 06:31:32;;;;;;;19.10;14.90;;;;;;;5.25;64.33;98746.17;116917;1177;58713;-66
2021/10/24 06:34:21;;;;;;;16.70;13.10;;;;;;;5.88;63.69;98755.30;117101;1175;71230;-66
2021/10/24 06:37:18;;;;;;;16.80;11.80;;;;;;;6.51;60.07;98755.10;117224;1176;67624;-64
2021/10/24 06:39:52;;;;;;;16.90;14.60;;;;;;;7.10;58.60;98757.80;116842;1177;69612;-66
2021/10/24 06:42:21;;;;;;;19.30;14.80;;;;;;;7.75;58.32;98758.58;117302;1176;58742;-65
2021/10/24 06:45:17;;;;;;;18.20;13.30;;;;;;;8.52;58.06;98765.30;117040;1177;58723;-65
2021/10/24 06:48:06;;;;;;;23.40;17.10;;;;;;;9.08;51.27;98765.63;117147;1177;70797;-66
2021/10/24 06:50:54;;;;;;;14.90;10.80;;;;;;;9.10;50.05;98768.50;117257;1175;67733;-63
2021/10/24 06:53:55;;;;;;;16.20;11.90;;;;;;;9.27;49.20;98774.16;116949;1176;69036;-64
2021/10/24 06:56:43;;;;;;;23.30;17.60;;;;;;;9.63;50.51;98776.84;117331;1175;58715;-66
2021/10/24 06:59:31;;;;;;;27.20;19.10;;;;;;;9.76;48.20;98779.69;117311;1175;58660;-66
2021/10/24 07:02:19;;;;;;;32.10;18.30;;;;;;;9.96;48.77;98781.15;117313;1175;70003;-65
2021/10/24 07:05:08;;;;;;;19.90;12.40;;;;;;;9.56;48.18;98782.91;117189;1177;68449;-66
2021/10/24 07:07:40;;;;;;;17.50;14.10;;;;;;;10.05;47.68;98789.95;116871;1177;68478;-65
2021/10/24 07:10:12;;;;;;;14.00;9.80;;;;;;;10.01;46.74;98790.50;117201;1177;58723;-66
2021/10/24 07:12:41;;;;;;;11.80;9.40;;;;;;;10.58;47.08;98788.54;117136;1175;58707;-66
2021/10/24 07:15:11;;;;;;;19.00;13.60;;;;;;;11.25;46.65;98788.92;117250;1177;70404;-66
2021/10/24 07:17:42;;;;;;;14.20;11.40;;;;;;;11.13;43.98;98788.66;117042;1176;67630;-67
2021/10/24 07:20:13;;;;;;;9.60;6.90;;;;;;;11.55;42.47;98789.89;117266;1176;68463;-65
2021/10/24 07:22:47;;;;;;;9.00;7.40;;;;;;;12.33;43.42;98789.55;117349;1175;58732;-66
2021/10/24 07:25:25;;;;;;;6.40;5.60;;;;;;;12.66;40.58;98790.90;117175;1175;58722;-65
2021/10/24 07:27:55;;;;;;;8.60;5.40;;;;;;;13.42;40.58;98794.17;117309;1176;70012;-68
2021/10/24 07:30:25;;;;;;;8.90;6.40;;;;;;;13.96;38.00;98796.38;117336;1177;68352;-64
2021/10/24 07:32:57;;;;;;;8.20;5.00;;;;;;;14.55;37.50;98790.23;116959;1176;68653;-66
2021/10/24 07:35:46;;;;;;;6.40;4.60;;;;;;;15.04;36.20;98789.84;117143;1177;58726;-66
2021/10/24 07:38:16;;;;;;;6.10;4.70;;;;;;;15.32;34.90;98792.66;117102;1177;59119;-68
2021/10/24 07:40:49;;;;;;;6.40;4.90;;;;;;;15.37;36.07;98795.27;117177;1175;70466;-64
2021/10/24 07:43:21;;;;;;;12.20;7.20;;;;;;;15.87;35.73;98797.38;117296;1176;67955;-66
2021/10/24 07:45:53;;;;;;;6.90;5.30;;;;;;;16.13;34.69;98795.61;117293;1177;69893;-65
2021/10/24 07:48:29;;;;;;;6.50;5.10;;;;;;;16.49;33.96;98801.91;117100;1175;58709;-65
2021/10/24 07:50:58;;;;;;;;;;;;;;;16.60;32.20;98802.69;116960;1177;58781;-65
2021/10/24 07:53:30;;;;;;;7.00;5.30;;;;;;;16.97;32.45;98804.09;117322;1177;71072;-66
2021/10/24 07:56:04;;;;;;;8.00;6.60;;;;;;;17.09;31.51;98802.11;117261;1175;68810;-65
2021/10/24 07:58:56;;;;;;;6.60;5.50;;;;;;;17.06;31.60;98800.98;117260;1177;69424;-66
2021/10/24 08:01:25;;;;;;;8.30;5.90;;;;;;;17.22;31.73;98801.48;117233;1175;58719;-64
2021/10/24 08:03:55;;;;;;;6.10;5.00;;;;;;;17.15;31.64;98809.06;117312;1175;58792;-66
2021/10/24 08:06:38;;;;;;;7.30;5.20;;;;;;;17.57;31.49;98811.91;117288;1177;70304;-66
2021/10/24 08:09:11;;;;;;;9.00;5.70;;;;;;;17.83;30.87;98813.95;117157;1177;68440;-67
2021/10/24 08:11:45;;;;;;;8.70;7.20;;;;;;;18.05;30.20;98814.80;117179;1176;69654;-66
2021/10/24 08:14:14;;;;;;;8.20;6.00;;;;;;;17.85;30.31;98814.85;117249;1176;58707;-68
2021/10/24 08:16:43;;;;;;;8.60;5.80;;;;;;;18.09;30.11;98817.67;117268;1175;58724;-65
2021/10/24 08:19:16;;;;;;;9.50;7.10;;;;;;;18.51;30.56;98824.75;117299;1176;70124;-67
2021/10/24 08:21:50;;;;;;;6.40;5.10;;;;;;;19.01;29.40;98819.21;117329;1176;68178;-69
2021/10/24 08:24:20;;;;;;;9.30;6.80;;;;;;;19.14;29.17;98822.50;117260;1175;68571;-64
2021/10/24 08:26:56;;;;;;;8.20;6.10;;;;;;;19.42;28.43;98827.21;117211;1177;58747;-67
2021/10/24 08:29:25;;;;;;;;;;;;;;;19.46;27.53;98826.31;116892;1177;58718;-65
2021/10/24 08:32:14;;;;;;;7.70;5.60;;;;;;;19.68;28.03;98824.20;117118;1177;70779;-67
2021/10/24 08:34:44;;;;;;;10.80;7.70;;;;;;;20.07;27.94;98825.90;117287;1176;68410;-68
2021/10/24 08:37:13;;;;;;;8.60;7.30;;;;;;;20.01;27.33;98822.55;117349;1176;69599;-65
2021/10/24 08:39:42;;;;;;;6.30;5.20;;;;;;;20.27;27.31;98820.90;117329;1177;59182;-66
2021/10/24 08:42:11;;;;;;;5.90;4.70;;;;;;;20.59;26.27;98820.80;117121;1177;58720;-67
2021/10/24 08:44:41;;;;;;;6.50;4.50;;;;;;;21.05;25.78;98826.84;117267;1167;70301;-67
2021/10/24 08:47:10;;;;;;;7.60;5.90;;;;;;;21.62;26.49;98826.27;117274;1175;68315;-68
2021/10/24 08:49:39;;;;;;;6.30;4.60;;;;;;;22.05;25.10;98831.11;117278;1175;69799;-67
2021/10/24 08:52:10;;;;;;;6.90;5.70;;;;;;;21.72;23.89;98828.08;116901;1177;59077;-66
2021/10/24 08:54:44;;;;;;;6.60;4.20;;;;;;;21.72;24.88;98825.43;116989;1177;58681;-66
2021/10/24 08:57:26;;;;;;;7.20;5.70;;;;;;;21.91;24.21;98828.05;117259;1177;70671;-67
2021/10/24 08:59:59;;;;;;;6.50;4.50;;;;;;;21.68;23.16;98824.63;117322;1175;68378;-69
2021/10/24 09:03:09;;;;;;;6.10;4.20;;;;;;;21.96;24.07;98828.09;117290;1175;68401;-66
2021/10/24 09:05:40;;;;;;;9.00;5.10;;;;;;;21.75;22.52;98824.29;117151;1177;58745;-69
2021/10/24 09:08:12;;;;;;;4.90;4.10;;;;;;;21.83;22.84;98821.00;117200;1177;58728;-64
2021/10/24 09:10:52;;;;;;;7.90;6.20;;;;;;;22.01;23.61;98824.80;117300;1177;69807;-65
2021/10/24 09:13:21;;;;;;;6.80;4.40;;;;;;;22.38;22.95;98826.43;117222;1177;68049;-65
2021/10/24 09:16:00;;;;;;;8.70;5.60;;;;;;;22.89;23.06;98824.89;116875;1177;69036;-67
2021/10/24 09:18:32;;;;;;;7.10;4.80;;;;;;;22.86;22.22;98824.15;117095;1177;58689;-68
2021/10/24 09:21:16;;;;;;;6.60;4.90;;;;;;;23.58;22.50;98819.12;117372;1176;58658;-69
2021/10/24 09:23:50;;;;;;;5.50;4.10;;;;;;;24.47;22.26;98815.54;117134;1176;69538;-68
2021/10/24 09:26:21;;;;;;;6.00;4.00;;;;;;;25.04;20.67;98814.81;117314;1176;68634;-70
2021/10/24 09:29:00;;;;;;;4.70;3.90;;;;;;;25.44;19.63;98816.31;117336;1176;69609;-67
2021/10/24 09:31:35;;;;;;;4.90;2.90;;;;;;;25.49;18.84;98810.58;117239;1176;58719;-66
2021/10/24 09:34:20;;;;;;;5.60;3.40;;;;;;;26.13;19.61;98819.51;117357;1177;58800;-68
2021/10/24 09:36:57;;;;;;;6.30;3.80;;;;;;;26.24;17.96;98818.16;117110;1176;70121;-68
2021/10/24 09:40:09;;;;;;;3.70;3.00;;;;;;;26.29;18.64;98819.20;117186;1175;68429;-68
2021/10/24 09:42:38;;;;;;;4.70;3.50;;;;;;;25.71;17.46;98816.49;116971;1177;69203;-67
2021/10/24 09:45:14;;;;;;;5.70;3.10;;;;;;;24.08;18.48;98813.05;117232;1175;58665;-65
2021/10/24 09:47:45;;;;;;;6.40;3.70;;;;;;;24.52;19.08;98811.11;116966;1177;58697;-68
2021/10/24 09:50:34;;;;;;;4.80;2.70;;;;;;;25.07;18.91;98813.21;117214;1177;70070;-66
2021/10/24 09:53:15;;;;;;;4.70;2.90;;;;;;;25.83;18.23;98812.92;117195;1175;68801;-66
2021/10/24 09:56:00;;;;;;;4.10;3.20;;;;;;;26.66;18.35;98816.25;117237;1175;68419;-69
2021/10/24 09:58:35;;;;;;;4.30;2.60;;;;;;;27.46;17.29;98808.64;117229;1175;58736;-67
2021/10/24 10:01:09;;;;;;;4.60;2.90;;;;;;;27.45;16.24;98806.03;117240;1177;58704;-68
2021/10/24 10:03:41;;;;;;;5.50;3.40;;;;;;;26.97;16.23;98811.84;117020;1177;71579;-66
2021/10/24 10:06:24;;;;;;;3.80;2.40;;;;;;;27.11;16.41;98813.58;117474;1176;68117;-68
2021/10/24 10:08:53;;;;;;;6.20;3.10;;;;;;;27.27;16.36;98804.67;117161;1177;68457;-67
2021/10/24 10:11:40;;;;;;;3.60;2.30;;;;;;;26.87;16.01;98807.09;117169;1177;58741;-64
2021/10/24 10:14:30;;;;;;;5.20;3.30;;;;;;;26.63;16.26;98800.52;117345;1168;59266;-65
2021/10/24 10:17:03;;;;;;;4.80;3.00;;;;;;;26.55;16.53;98802.83;117290;1176;70927;-66
2021/10/24 10:19:41;;;;;;;6.10;3.90;;;;;;;27.19;16.77;98800.48;117352;1176;67690;-65
2021/10/24 10:22:32;;;;;;;4.40;2.90;;;;;;;26.30;15.81;98800.64;117221;1176;69475;-65
2021/10/24 10:25:06;;;;;;;4.50;3.30;;;;;;;25.35;16.78;98798.68;117308;1175;58727;-67
2021/10/24 10:27:35;;;;;;;5.80;3.50;;;;;;;22.92;18.89;98798.55;117249;1175;58748;-65
2021/10/24 10:30:37;;;;;;;6.40;3.70;;;;;;;21.78;20.56;98795.33;117328;1176;69460;-66
2021/10/24 10:33:28;;;;;;;8.10;5.00;;;;;;;20.33;22.35;98792.10;117282;1176;67703;-65
2021/10/24 10:35:59;;;;;;;7.00;4.60;;;;;;;18.20;24.83;98793.14;117228;1175;69259;-66
2021/10/24 10:38:40;;;;;;;5.50;4.00;;;;;;;17.66;25.83;98791.80;117231;1176;58729;-69
2021/10/24 10:41:14;;;;;;;4.40;3.40;;;;;;;17.48;26.19;98792.55;117449;1175;58726;-66
2021/10/24 10:44:08;;;;;;;3.80;2.70;;;;;;;17.81;26.10;98790.30;117308;1175;70599;-68
2021/10/24 10:46:38;;;;;;;4.60;2.80;;;;;;;18.00;25.99;98790.87;117217;1176;68108;-67
2021/10/24 10:49:29;;;;;;;5.30;3.50;;;;;;;18.15;25.30;98789.27;117288;1177;68252;-68
2021/10/24 10:52:37;;;;;;;4.50;3.30;;;;;;;17.68;25.97;98785.35;117237;1177;59071;-69
2021/10/24 10:55:06;;;;;;;5.50;2.70;;;;;;;18.53;25.39;98784.58;117101;1177;58730;-67
2021/10/24 10:57:35;;;;;;;3.70;2.70;;;;;;;19.60;24.07;98775.38;116832;1177;70537;-66
2021/10/24 11:00:38;;;;;;;5.40;3.30;;;;;;;20.88;23.33;98774.17;117250;1177;68539;-66
2021/10/24 11:03:07;;;;;;;4.80;2.50;;;;;;;22.08;22.28;98777.76;117295;1176;69317;-67
2021/10/24 11:05:39;;;;;;;3.50;2.40;;;;;;;22.66;21.57;98776.61;117209;1174;58716;-68
2021/10/24 11:08:47;;;;;;;3.10;2.40;;;;;;;23.57;20.01;98767.06;117317;1175;59116;-67
2021/10/24 11:11:37;;;;;;;4.90;2.50;;;;;;;24.19;19.29;98770.45;117236;1167;70322;-65
2021/10/24 11:14:15;;;;;;;4.10;2.80;;;;;;;24.32;18.72;98769.55;117250;1176;68354;-65
2021/10/24 11:16:47;;;;;;;3.20;2.10;;;;;;;24.05;18.50;98765.52;117300;1175;69613;-67
2021/10/24 11:19:26;;;;;;;3.60;1.90;;;;;;;24.41;18.80;98765.91;116841;1177;58739;-66
2021/10/24 11:22:07;;;;;;;2.70;1.80;;;;;;;24.36;18.71;98762.34;117312;1177;58700;-68
2021/10/24 11:24:52;;;;;;;4.60;2.20;;;;;;;24.66;17.99;98759.45;117203;1177;70556;-65
2021/10/24 11:27:29;;;;;;;2.70;1.70;;;;;;;25.10;17.44;98758.84;117172;1177;68003;-66
2021/10/24 11:30:00;;;;;;;3.60;2.10;;;;;;;25.17;16.76;98755.29;117015;1177;69611;-64
2021/10/24 11:32:34;;;;;;;4.20;1.80;;;;;;;24.77;16.56;98761.59;117105;1177;58717;-67
2021/10/24 11:35:11;;;;;;;3.30;1.80;;;;;;;24.79;16.64;98760.39;117125;1176;58681;-69
2021/10/24 11:37:47;;;;;;;2.80;1.60;;;;;;;24.54;16.81;98757.34;117379;1177;70162;-68
2021/10/24 11:40:22;;;;;;;3.50;1.50;;;;;;;24.75;17.11;98756.98;117358;1175;67854;-67
2021/10/24 11:43:12;;;;;;;3.30;1.70;;;;;;;25.18;16.68;98754.60;117004;1168;68564;-65
2021/10/24 11:45:41;;;;;;;4.00;1.80;;;;;;;25.60;16.20;98750.60;117113;1176;58735;-66
2021/10/24 11:48:13;;;;;;;4.20;1.50;;;;;;;25.64;15.53;98751.31;117172;1175;58732;-67
2021/10/24 11:50:55;;;;;;;2.30;1.50;;;;;;;25.73;15.34;98751.98;117044;1177;70574;-67
2021/10/24 11:53:35;;;;;;;2.90;1.60;;;;;;;25.84;15.67;98755.66;117386;1176;68989;-67
2021/10/24 11:56:10;;;;;;;2.80;1.70;;;;;;;26.27;15.69;98759.08;117287;1177;68540;-65
2021/10/24 12:01:23;;;;;;;2.70;1.60;;;;;;;27.15;14.71;98766.38;117144;1176;59140;-66
2021/10/24 12:03:57;;;;;;;2.30;1.70;;;;;;;26.72;14.34;98773.58;117191;1167;69614;-67